Terminal Aerodrome Forecast
Issued by NWS

Home | Current Version | Previous Version | Text Only | Print | Product List | Glossary On
Versions: 1 2 3 4 5 6 7 8 9 10 11 12 13 14
000
FTUS45 KTFX 041131
TAFHLN
TAF
KHLN 041131Z 0412/0512 VRB06KT P6SM SCT120
     FM042000 08007KT P6SM SCT120
     FM042200 23005KT P6SM SCT100 BKN120
      TEMPO 0422/0501 24015G22KT=

USA.gov is the U.S. government's official web portal to all federal, state and local government web resources and services.